首页
METAR-TAF:

METAR-TAF

机场 :

恩吉利國際機場

金夏沙, 刚果

纬度: 04-23S, 经度: 015-26E, 海拔: 309米

当前天气观测

该预报发布于24分钟前的20:30 UTC
风速6节,风向西
温度 27°C
湿度 74%
气压 1011 hPa
能見度: 4000
轻雾,

METAR: FZAA 252030Z 28006KT 4000 BR NSC 27/22 Q1011 NOSIG

时间: 21:54 (20:54 UTC)

预报

该预报发布于3小时和54分钟前的17:00 UTC
预报有效从25日的 18点(UTC)到 26日的 24点(UTC)
风速6节,风向西
能見度: 5000
成为
从 25日的 19点(UTC)到 25日的 21点(UTC)
能見度: 6000
短暂存在
从 26日的 02点(UTC)到 26日的 05点(UTC)
能見度: 3000
多云层高于1200英尺
轻雾
成为
从 26日的 10点(UTC)到 26日的 12点(UTC)
少量云层高于2000英尺

TAF: FZAA 251700Z 2518/2624 26006KT 5000 HZ NSC BECMG 2519/2521 6000 NSW TEMPO 2602/2605 3000 BR BKN012 BECMG 2610/2612 FEW020

超过4000个机场的气象观测和天气预报(METAR&TAF报告)。

可查询的气象台以黄色和红色小点在地图上表示。

将鼠标移到小点上方,可查看气象台名称。

然后点击查看天气观测和预报。

如需切换地图:点击带黑十字的绿色按钮放大地图;点击带横线的绿色按钮缩小地图;或者点击绿色箭头查看邻近地区的地图。


METAR-TAF: